Terminal Aerodrome Forecast
Issued by NWS

Home | Current Version | Previous Version | Text Only | Print | Product List | Glossary On
Versions: 1 2 3 4 5 6 7 8 9 10 11 12 13 14 15 16 17 18 19 20 21
000
FTUS43 KILX 291751
TAFCMI
TAF
KCMI 291751Z 2918/3018 24014G22KT P6SM FEW100
     FM292100 27010KT P6SM VCTS SCT070CB SCT250
     FM300000 28006KT P6SM SCT250
     FM301400 26010KT P6SM FEW250
     FM301700 26012G20KT P6SM FEW200=

USA.gov is the U.S. government's official web portal to all federal, state and local government web resources and services.